Time;durP1;ratioP1;P1;durP2;ratioP2;P2;SDS_P1;SDS_P2;PMS_P1;PMS_P2;Temp;Humidity;BMP_temperature;BMP_pressure;BME280_temperature;BME280_humidity;BME280_pressure;Samples;Min_cycle;Max_cycle;Signal;HPM_P1;HPM_P2
2021/04/10 00:01:41;;;;;;;11.30;4.90;;;10.50;98.50;;;11.25;54.08;100777.06;5004775;28;20211;-74
2021/04/10 00:04:09;;;;;;;11.57;5.38;;;10.40;98.40;;;11.20;54.02;100781.63;5006088;28;20186;-74
2021/04/10 00:06:36;;;;;;;14.38;4.93;;;10.40;98.50;;;11.14;54.42;100778.38;5010687;28;20198;-75
2021/04/10 00:09:07;;;;;;;14.18;5.50;;;10.30;98.50;;;11.08;54.25;100779.50;5001569;28;20271;-73
2021/04/10 00:11:36;;;;;;;13.52;5.93;;;10.20;98.60;;;11.02;54.44;100784.09;5017022;28;20206;-74
2021/04/10 00:14:04;;;;;;;14.68;5.72;;;10.20;98.70;;;10.99;54.58;100784.22;5018553;28;20277;-75
2021/04/10 00:16:31;;;;;;;14.40;5.57;;;10.10;98.80;;;10.96;54.93;100794.81;5038503;28;20267;-73
2021/04/10 00:18:58;;;;;;;16.90;5.78;;;10.10;98.90;;;10.92;54.63;100790.59;5018262;28;20230;-73
2021/04/10 00:21:24;;;;;;;12.00;5.38;;;10.00;99.10;;;10.88;54.65;100797.75;5007963;28;20205;-75
2021/04/10 00:23:50;;;;;;;15.45;5.93;;;10.00;99.30;;;10.83;55.16;100804.03;4993284;28;20233;-75
2021/04/10 00:26:17;;;;;;;14.98;6.35;;;9.90;99.40;;;10.77;55.26;100799.88;4992855;28;20229;-73
2021/04/10 00:28:44;;;;;;;15.02;6.10;;;9.90;99.60;;;10.71;55.72;100799.25;5000506;28;20198;-74
2021/04/10 00:31:10;;;;;;;13.85;6.07;;;9.90;99.80;;;10.64;55.82;100801.25;5002474;28;20288;-75
2021/04/10 00:33:39;;;;;;;15.10;5.68;;;9.80;99.90;;;10.61;56.16;100796.13;5019127;28;20195;-73
2021/04/10 00:36:08;;;;;;;13.55;6.30;;;9.80;99.90;;;10.59;56.19;100804.94;5012973;28;20222;-74
2021/04/10 00:38:36;;;;;;;14.45;6.50;;;9.80;99.90;;;10.55;56.47;100800.75;4999654;28;20225;-73
2021/04/10 00:41:05;;;;;;;16.60;5.85;;;9.70;99.90;;;10.52;56.48;100800.81;5020740;28;20276;-75
2021/04/10 00:43:32;;;;;;;12.52;5.88;;;9.70;99.90;;;10.49;56.79;100801.81;5016629;28;20202;-74
2021/04/10 00:46:09;;;;;;;12.30;5.78;;;9.70;99.90;;;10.44;57.18;100800.25;5014867;28;20900;-78
2021/04/10 00:48:36;;;;;;;13.07;5.93;;;9.70;99.90;;;10.41;57.40;100797.75;4999991;28;20194;-75
2021/04/10 00:51:03;;;;;;;15.40;6.30;;;9.70;99.90;;;10.41;57.38;100801.22;5000395;28;20214;-75
2021/04/10 00:53:34;;;;;;;14.48;6.18;;;9.70;99.90;;;10.45;57.41;100796.75;4995780;28;20206;-75
2021/04/10 00:56:05;;;;;;;14.57;6.25;;;9.70;99.90;;;10.49;57.55;100787.84;4997214;28;20207;-75
2021/04/10 00:58:33;;;;;;;14.55;5.72;;;9.70;99.90;;;10.47;57.26;100789.66;4998269;28;20674;-76
2021/04/10 01:01:01;;;;;;;13.45;6.28;;;9.60;99.90;;;10.44;58.01;100779.31;5000205;28;20218;-74
2021/04/10 01:03:30;;;;;;;13.98;6.35;;;9.60;99.90;;;10.41;58.17;100769.84;5018443;28;20194;-74
2021/04/10 01:05:57;;;;;;;14.70;6.32;;;9.60;99.90;;;10.30;58.25;100773.75;5016984;28;20206;-73
2021/04/10 01:08:23;;;;;;;11.80;5.60;;;9.50;99.90;;;10.16;58.69;100775.97;5022704;28;20568;-74
2021/04/10 01:10:51;;;;;;;13.38;5.82;;;9.40;99.90;;;10.00;59.17;100781.72;5022755;28;20218;-76
2021/04/10 01:13:36;;;;;;;14.55;6.32;;;9.30;99.90;;;9.92;59.59;100783.72;5001284;28;20225;-74
2021/04/10 01:16:12;;;;;;;11.55;5.65;;;9.20;99.90;;;9.84;60.10;100783.16;5014114;28;20206;-73
2021/04/10 01:18:49;;;;;;;12.32;5.93;;;9.10;99.90;;;9.78;60.55;100778.09;5010898;28;20706;-73
2021/04/10 01:21:33;;;;;;;14.85;5.57;;;8.90;99.90;;;9.73;61.35;100769.56;5004530;28;20204;-74
2021/04/10 01:24:49;;;;;;;13.75;4.95;;;8.90;99.90;;;9.72;61.79;100774.84;5000486;28;20664;-75
2021/04/10 01:27:37;;;;;;;11.25;5.10;;;8.80;99.90;;;9.72;62.21;100774.84;5015528;28;20202;-74
2021/04/10 01:30:11;;;;;;;13.80;5.70;;;8.70;99.90;;;9.75;62.55;100772.13;5013841;28;20215;-73
2021/04/10 01:32:49;;;;;;;13.05;5.18;;;8.70;99.90;;;9.76;62.90;100768.63;5023091;28;20197;-75
2021/04/10 01:35:18;;;;;;;14.82;5.57;;;8.70;99.90;;;9.78;62.91;100772.88;5012847;28;20221;-75
2021/04/10 01:37:54;;;;;;;12.23;5.18;;;8.70;99.90;;;9.76;63.04;100766.00;5009345;28;20207;-76
2021/04/10 01:40:24;;;;;;;11.77;5.03;;;8.70;99.90;;;9.71;63.34;100765.31;5018759;28;20369;-75
2021/04/10 01:42:55;;;;;;;12.23;5.05;;;8.60;99.90;;;9.66;63.90;100773.28;5001118;28;20286;-75
2021/04/10 01:45:26;;;;;;;11.57;5.00;;;8.70;99.90;;;9.66;63.79;100781.13;5001854;28;20191;-75
2021/04/10 01:47:59;;;;;;;12.52;4.63;;;8.60;99.90;;;9.67;64.24;100788.06;5022187;28;20612;-76
2021/04/10 01:50:28;;;;;;;12.30;4.35;;;8.60;99.90;;;9.65;64.00;100779.41;5000307;28;20233;-75
2021/04/10 01:52:59;;;;;;;11.75;4.32;;;8.70;99.90;;;9.60;64.24;100780.47;5040510;28;20266;-75
2021/04/10 01:55:27;;;;;;;12.35;4.20;;;8.60;99.90;;;9.57;64.41;100780.56;5031313;28;20177;-77
2021/04/10 01:57:56;;;;;;;12.68;4.70;;;8.50;99.90;;;9.58;64.35;100785.75;5038556;28;20273;-75
2021/04/10 02:00:31;;;;;;;11.77;4.40;;;8.50;99.90;;;9.58;64.51;100780.53;5020383;28;20225;-75
2021/04/10 02:03:03;;;;;;;12.20;4.38;;;8.50;99.90;;;9.55;64.63;100778.00;5044458;28;20173;-76
2021/04/10 02:05:35;;;;;;;11.57;4.35;;;8.50;99.90;;;9.55;64.61;100778.00;5026719;28;20311;-75
2021/04/10 02:08:19;;;;;;;11.13;4.63;;;8.50;99.90;;;9.53;65.00;100794.63;5029625;28;20190;-75
2021/04/10 02:10:47;;;;;;;12.98;5.30;;;8.50;99.90;;;9.55;64.73;100798.91;5045820;28;20237;-75
2021/04/10 02:13:43;;;;;;;10.95;4.30;;;8.50;99.90;;;9.56;64.92;100800.59;5016632;28;20209;-76
2021/04/10 02:16:14;;;;;;;12.95;4.53;;;8.50;99.90;;;9.61;65.01;100805.72;5042308;28;20746;-75
2021/04/10 02:18:45;;;;;;;11.88;4.95;;;8.60;99.90;;;9.63;64.99;100809.09;5013689;28;20230;-75
2021/04/10 02:21:12;;;;;;;13.82;4.65;;;8.60;99.90;;;9.65;64.70;100797.72;5012838;28;20202;-75
2021/04/10 02:23:39;;;;;;;12.82;4.60;;;8.60;99.90;;;9.65;64.60;100800.31;5014990;28;20249;-76
2021/04/10 02:26:12;;;;;;;10.45;4.25;;;8.60;99.90;;;9.61;64.80;100806.53;5002730;28;20199;-75
2021/04/10 02:28:38;;;;;;;12.68;4.47;;;8.60;99.90;;;9.62;64.81;100815.25;5014823;28;20576;-76
2021/04/10 02:31:06;;;;;;;12.52;4.55;;;8.60;99.90;;;9.68;64.71;100812.41;5010615;28;20194;-75
2021/04/10 02:33:42;;;;;;;11.80;4.22;;;8.70;99.90;;;9.69;65.02;100808.91;5008899;28;20281;-74
2021/04/10 02:36:15;;;;;;;10.00;4.30;;;8.70;99.90;;;9.73;65.04;100806.16;5010448;28;20252;-75
2021/04/10 02:38:46;;;;;;;12.30;4.40;;;8.70;99.90;;;9.76;64.82;100816.50;5038992;28;20285;-74
2021/04/10 02:41:19;;;;;;;12.90;4.57;;;8.80;99.90;;;9.75;64.98;100814.78;5001101;28;20190;-75
2021/04/10 02:43:54;;;;;;;13.38;4.63;;;8.80;99.90;;;9.76;65.29;100816.50;5013202;28;20285;-76
2021/04/10 02:46:26;;;;;;;11.30;4.53;;;8.90;99.90;;;9.77;65.17;100813.00;5015496;28;20261;-75
2021/04/10 02:49:01;;;;;;;10.75;4.45;;;8.90;99.90;;;9.79;65.17;100805.97;5002608;28;20195;-73
2021/04/10 02:51:35;;;;;;;15.40;4.90;;;9.00;99.90;;;9.76;65.07;100810.44;5022320;28;20202;-75
2021/04/10 02:54:04;;;;;;;11.68;4.82;;;8.90;99.90;;;9.74;65.79;100809.63;5025136;28;20194;-75
2021/04/10 02:56:33;;;;;;;13.00;5.35;;;9.00;99.90;;;9.71;65.28;100813.16;5015944;28;20551;-75
2021/04/10 02:59:03;;;;;;;12.48;4.63;;;8.90;99.90;;;9.67;65.60;100803.75;5011986;28;20261;-77
2021/04/10 03:01:31;;;;;;;15.43;6.68;;;8.90;99.90;;;9.64;65.59;100798.63;5006344;28;20217;-76
2021/04/10 03:04:01;;;;;;;19.60;9.32;;;8.80;99.90;;;9.66;65.95;100802.03;5004980;28;20213;-76
2021/04/10 03:06:31;;;;;;;15.27;8.07;;;8.80;99.90;;;9.64;65.65;100796.00;5026836;28;20199;-75
2021/04/10 03:09:00;;;;;;;16.58;6.70;;;8.80;99.90;;;9.65;65.70;100802.06;5034628;28;20222;-76
2021/04/10 03:11:27;;;;;;;18.15;6.13;;;8.70;99.90;;;9.66;65.78;100799.41;5026789;28;20194;-75
2021/04/10 03:13:54;;;;;;;15.40;7.03;;;8.70;99.90;;;9.68;65.60;100805.44;5004475;28;20269;-75
2021/04/10 03:16:29;;;;;;;12.68;6.40;;;8.70;99.90;;;9.70;65.78;100810.63;4999737;28;20234;-73
2021/04/10 03:19:00;;;;;;;12.55;6.03;;;8.70;99.90;;;9.68;65.25;100813.28;5002038;28;20199;-74
2021/04/10 03:21:31;;;;;;;13.38;6.55;;;8.60;99.90;;;9.66;65.66;100820.31;5027126;28;20209;-74
2021/04/10 03:24:07;;;;;;;11.65;4.30;;;8.60;99.90;;;9.66;65.58;100820.31;5007822;28;20205;-73
2021/04/10 03:26:36;;;;;;;10.70;4.40;;;8.70;99.90;;;9.65;65.73;100813.38;5011710;28;20198;-74
2021/04/10 03:29:03;;;;;;;14.95;5.55;;;8.60;99.90;;;9.60;65.68;100820.50;5025345;28;20647;-74
2021/04/10 03:31:35;;;;;;;14.20;5.07;;;8.60;99.90;;;9.59;65.94;100813.59;5023759;28;20581;-74
2021/04/10 03:34:05;;;;;;;11.50;4.30;;;8.60;99.90;;;9.59;66.39;100818.81;5005458;28;20697;-74
2021/04/10 03:36:35;;;;;;;13.98;4.72;;;8.70;99.90;;;9.58;66.34;100830.16;5019628;28;20611;-75
2021/04/10 03:39:02;;;;;;;11.27;4.57;;;8.60;99.90;;;9.58;67.33;100830.16;5036294;28;20222;-73
2021/04/10 03:41:29;;;;;;;10.65;4.40;;;8.60;99.90;;;9.59;67.38;100836.25;4997155;28;20202;-73
2021/04/10 03:43:55;;;;;;;12.45;4.38;;;8.70;99.90;;;9.58;67.42;100830.16;5016424;28;20206;-76
2021/04/10 03:46:22;;;;;;;12.95;3.90;;;8.60;99.90;;;9.59;66.80;100844.94;5013711;28;20292;-75
2021/04/10 03:48:49;;;;;;;11.15;4.50;;;8.60;99.90;;;9.54;67.54;100846.84;5011910;28;20281;-75
2021/04/10 03:51:23;;;;;;;10.57;4.10;;;8.50;99.90;;;9.53;67.94;100847.72;5000438;28;20195;-75
2021/04/10 03:53:55;;;;;;;10.32;3.75;;;8.50;99.90;;;9.56;68.40;100846.78;4998061;28;20195;-75
2021/04/10 03:56:25;;;;;;;14.07;4.22;;;8.60;99.90;;;9.56;68.53;100849.41;5013220;28;20195;-75
2021/04/10 03:58:53;;;;;;;10.80;3.80;;;8.60;99.90;;;9.58;68.56;100853.66;5008327;28;20201;-75
2021/04/10 04:01:31;;;;;;;15.85;3.78;;;8.70;99.90;;;9.65;67.90;100864.78;5023813;28;20204;-75
2021/04/10 04:03:58;;;;;;;11.55;4.05;;;8.60;99.90;;;9.68;68.07;100862.06;5006316;28;20200;-74
2021/04/10 04:06:25;;;;;;;12.05;3.85;;;8.60;99.90;;;9.68;67.63;100865.53;5027639;28;20198;-73
2021/04/10 04:08:51;;;;;;;10.85;4.35;;;8.60;99.90;;;9.63;68.22;100867.44;5022565;28;20224;-73
2021/04/10 04:11:18;;;;;;;11.48;3.97;;;8.60;99.90;;;9.63;68.92;100864.81;5003534;28;20194;-73
2021/04/10 04:13:44;;;;;;;11.07;4.40;;;8.50;99.90;;;9.58;69.01;100864.13;5013553;28;20195;-76
2021/04/10 04:16:11;;;;;;;14.60;4.20;;;8.50;99.90;;;9.56;69.61;100868.53;5018171;28;20851;-76
2021/04/10 04:18:37;;;;;;;12.65;4.10;;;8.50;99.90;;;9.52;70.20;100872.16;5002986;28;20217;-76
2021/04/10 04:21:03;;;;;;;12.15;4.47;;;8.50;99.90;;;9.50;70.65;100875.69;5017872;28;20237;-76
2021/04/10 04:23:31;;;;;;;9.95;4.30;;;8.40;99.90;;;9.50;70.86;100875.69;5025397;28;20289;-73
2021/04/10 04:25:57;;;;;;;13.82;4.30;;;8.40;99.90;;;9.45;71.12;100878.47;5002636;28;20201;-75
2021/04/10 04:28:23;;;;;;;9.70;4.28;;;8.30;99.90;;;9.39;71.60;100873.44;5020375;28;20214;-74
2021/04/10 04:30:50;;;;;;;14.00;5.03;;;8.20;99.90;;;9.30;72.56;100878.91;5008166;28;20214;-74
2021/04/10 04:33:16;;;;;;;12.73;5.00;;;8.20;99.90;;;9.24;73.22;100889.56;5017977;28;20249;-73
2021/04/10 04:35:42;;;;;;;14.73;4.60;;;8.20;99.90;;;9.15;73.23;100874.16;5013791;28;20197;-75
2021/04/10 04:38:09;;;;;;;16.25;4.57;;;8.10;99.90;;;9.07;73.56;100886.56;5019614;28;20221;-75
2021/04/10 04:40:36;;;;;;;12.50;4.95;;;8.00;99.90;;;9.01;74.21;100894.56;5004020;28;20229;-75
2021/04/10 04:43:02;;;;;;;11.18;4.70;;;8.00;99.90;;;8.93;74.52;100893.06;5006797;28;20200;-75
2021/04/10 04:45:28;;;;;;;11.38;4.75;;;8.00;99.90;;;8.87;74.79;100900.16;5023890;28;20204;-75
2021/04/10 04:47:58;;;;;;;13.07;4.82;;;8.00;99.90;;;8.86;75.80;100918.47;5005448;28;20684;-76
2021/04/10 04:50:24;;;;;;;13.57;4.88;;;7.90;99.90;;;8.83;75.70;100910.72;5008307;28;20223;-75
2021/04/10 04:52:50;;;;;;;11.60;4.57;;;7.90;99.90;;;8.77;76.55;100908.31;4992788;28;20182;-74
2021/04/10 04:55:17;;;;;;;11.57;4.78;;;7.90;99.90;;;8.74;76.95;100914.44;5002247;28;20190;-73
2021/04/10 04:57:44;;;;;;;11.52;4.72;;;7.90;99.90;;;8.74;77.21;100916.22;5006414;28;20194;-73
2021/04/10 05:00:12;;;;;;;14.15;4.90;;;7.90;99.90;;;8.70;77.40;100918.06;5004792;28;20214;-73
2021/04/10 05:02:38;;;;;;;11.98;4.53;;;7.80;99.90;;;8.59;77.01;100921.84;5004950;28;20741;-74
2021/04/10 05:05:06;;;;;;;12.40;5.13;;;7.70;99.90;;;8.54;77.44;100921.09;5004521;28;20198;-75
2021/04/10 05:07:32;;;;;;;12.63;4.18;;;7.70;99.90;;;8.57;77.42;100932.28;5016541;28;20221;-76
2021/04/10 05:09:59;;;;;;;12.00;4.85;;;7.60;99.90;;;8.57;77.62;100931.44;5001537;28;20279;-75
2021/04/10 05:12:25;;;;;;;12.77;5.05;;;7.70;99.90;;;8.57;77.98;100928.84;5002886;28;20195;-75
2021/04/10 05:14:53;;;;;;;13.90;5.45;;;7.60;99.90;;;8.58;77.98;100940.97;5027830;28;20252;-75
2021/04/10 05:17:20;;;;;;;12.38;5.20;;;7.50;99.90;;;8.54;78.86;100936.75;5029888;28;20202;-74
2021/04/10 05:19:46;;;;;;;12.57;4.82;;;7.60;99.90;;;8.53;79.00;100941.09;5007226;28;20222;-75
2021/04/10 05:22:12;;;;;;;11.52;4.68;;;7.60;99.90;;;8.51;79.26;100952.47;5026071;28;20191;-76
2021/04/10 05:24:39;;;;;;;12.80;4.63;;;7.60;99.90;;;8.45;80.07;100952.63;5020566;28;20253;-75
2021/04/10 05:27:06;;;;;;;12.50;5.70;;;7.60;99.90;;;8.38;80.00;100951.06;5028735;28;20195;-73
2021/04/10 05:29:32;;;;;;;14.45;7.13;;;7.60;99.90;;;8.22;80.74;100960.13;5001999;28;20609;-75
2021/04/10 05:32:01;;;;;;;13.60;6.45;;;7.50;99.90;;;8.06;82.18;100961.38;5018952;28;20210;-75
2021/04/10 05:34:27;;;;;;;15.05;6.93;;;7.40;99.90;;;8.01;83.31;100965.81;5005699;28;20198;-75
2021/04/10 05:36:53;;;;;;;15.15;6.55;;;7.40;99.90;;;8.03;83.76;100969.25;4995782;28;20195;-75
2021/04/10 05:39:20;;;;;;;15.60;7.13;;;7.40;99.90;;;8.03;83.89;100969.25;5005691;28;20242;-76
2021/04/10 05:41:46;;;;;;;15.20;6.45;;;7.30;99.90;;;8.01;84.12;100965.81;5004491;28;20722;-76
2021/04/10 05:44:12;;;;;;;15.55;7.18;;;7.30;99.90;;;8.04;84.37;100968.38;5024386;28;20608;-74
2021/04/10 05:46:39;;;;;;;17.17;7.07;;;7.30;99.90;;;8.10;84.87;100974.31;5032122;28;20236;-76
2021/04/10 05:49:06;;;;;;;16.75;7.88;;;7.40;99.90;;;8.13;85.10;100971.63;5006824;28;20568;-76
2021/04/10 05:51:32;;;;;;;16.02;7.15;;;7.40;99.90;;;8.19;85.34;100973.25;5001742;28;20187;-75
2021/04/10 05:53:59;;;;;;;16.90;7.50;;;7.40;99.90;;;8.20;85.57;100986.22;5026637;28;20329;-76
2021/04/10 05:56:25;;;;;;;17.88;8.00;;;7.40;99.90;;;8.19;85.15;100983.66;5023003;28;20424;-76
2021/04/10 05:58:51;;;;;;;21.77;7.20;;;7.40;99.90;;;8.20;85.61;100981.03;5012188;28;20230;-73
2021/04/10 06:01:17;;;;;;;17.25;7.47;;;7.40;99.90;;;8.20;85.15;100985.38;5020873;28;20209;-75
2021/04/10 06:03:44;;;;;;;17.63;7.57;;;7.40;99.90;;;8.21;85.51;100987.06;5008052;28;20288;-76
2021/04/10 06:06:12;;;;;;;17.88;7.90;;;7.30;99.90;;;8.26;85.51;100983.50;5006087;28;20204;-75
2021/04/10 06:08:38;;;;;;;15.68;7.22;;;7.40;99.90;;;8.32;85.45;100985.13;4999788;28;20226;-76
2021/04/10 06:11:04;;;;;;;14.45;6.38;;;7.40;99.90;;;8.38;85.30;100983.22;5024911;28;20194;-73
2021/04/10 06:13:31;;;;;;;14.23;6.60;;;7.30;99.90;;;8.41;84.42;100983.13;5005167;28;20698;-75
2021/04/10 06:15:57;;;;;;;13.50;6.13;;;7.20;99.90;;;8.40;84.03;100991.00;5006582;28;20202;-75
2021/04/10 06:18:23;;;;;;;14.20;5.25;;;7.20;99.90;;;8.39;83.61;100984.06;5009472;28;20206;-75
2021/04/10 06:20:50;;;;;;;13.38;5.30;;;7.10;99.90;;;8.44;82.94;100988.25;5024893;28;20222;-75
2021/04/10 06:23:17;;;;;;;11.38;4.30;;;7.10;99.90;;;8.50;82.63;100990.75;5002402;28;20243;-76
2021/04/10 06:25:43;;;;;;;12.60;4.93;;;7.10;99.90;;;8.54;82.39;101002.78;5001947;28;20250;-73
2021/04/10 06:28:10;;;;;;;16.00;4.80;;;7.10;99.90;;;8.56;81.67;100997.53;5005535;28;20190;-76
2021/04/10 06:30:36;;;;;;;13.95;4.40;;;7.10;99.90;;;8.54;81.45;100999.34;5001730;28;20497;-74
2021/04/10 06:33:03;;;;;;;14.50;5.20;;;7.20;99.90;;;8.47;80.62;101008.22;5021669;28;20663;-75
2021/04/10 06:35:29;;;;;;;12.82;4.88;;;7.10;99.90;;;8.43;80.59;101011.78;5009687;28;20210;-74
2021/04/10 06:37:55;;;;;;;12.35;4.30;;;7.20;99.90;;;8.44;80.43;101013.50;5021728;28;20197;-75
2021/04/10 06:40:22;;;;;;;16.38;5.05;;;7.20;99.90;;;8.49;80.95;101015.09;5013893;28;20577;-76
2021/04/10 06:42:49;;;;;;;14.32;5.15;;;7.30;99.90;;;8.56;80.84;101016.66;5023422;28;20192;-75
2021/04/10 06:45:15;;;;;;;13.20;4.57;;;7.40;99.90;;;8.58;80.91;101014.88;5020850;28;20190;-76
2021/04/10 06:47:45;;;;;;;13.68;5.30;;;7.50;99.90;;;8.58;81.14;101019.22;5007344;28;20682;-75
2021/04/10 06:50:13;;;;;;;14.15;5.50;;;7.50;99.90;;;8.53;81.45;101016.75;5011051;28;20229;-75
2021/04/10 06:52:42;;;;;;;15.52;5.90;;;7.50;99.90;;;8.44;81.75;101016.13;5013451;28;20201;-77
2021/04/10 06:55:12;;;;;;;17.08;6.50;;;7.50;99.90;;;8.38;82.26;101022.31;5018192;28;20209;-73
2021/04/10 06:58:01;;;;;;;16.67;6.80;;;7.50;99.90;;;8.34;82.47;101019.84;5006020;28;20206;-75
2021/04/10 07:00:29;;;;;;;13.23;5.93;;;7.50;99.90;;;8.32;82.98;101019.00;5004489;28;20230;-74
2021/04/10 07:02:58;;;;;;;17.00;6.97;;;7.50;99.90;;;8.31;83.10;101018.13;5026210;28;20223;-74
2021/04/10 07:05:25;;;;;;;14.38;7.07;;;7.50;99.90;;;8.27;83.25;101021.69;5022703;28;20729;-72
2021/04/10 07:07:53;;;;;;;16.10;7.10;;;7.40;99.90;;;8.24;83.34;101024.38;5005236;28;20190;-76
2021/04/10 07:10:20;;;;;;;15.75;6.95;;;7.40;99.90;;;8.32;83.99;101019.84;5017522;28;20669;-73
2021/04/10 07:12:47;;;;;;;15.10;6.45;;;7.40;99.90;;;8.37;83.69;101027.56;5018444;28;20602;-75
2021/04/10 07:15:16;;;;;;;14.73;5.88;;;7.40;99.90;;;8.35;83.39;101038.03;5010355;28;20240;-74
2021/04/10 07:17:43;;;;;;;13.48;5.50;;;7.40;99.90;;;8.31;82.89;101040.72;5036074;28;20205;-76
2021/04/10 07:20:34;;;;;;;17.45;5.50;;;7.40;99.90;;;8.30;82.44;101044.25;5034120;28;20229;-75
2021/04/10 07:23:03;;;;;;;16.77;5.88;;;7.30;99.90;;;8.25;82.28;101040.88;5008651;28;20263;-75
2021/04/10 07:25:32;;;;;;;16.58;5.65;;;7.30;99.90;;;8.20;82.29;101045.31;5020046;28;20226;-72
2021/04/10 07:28:26;;;;;;;16.02;5.18;;;7.30;99.90;;;8.26;82.09;101039.97;5035093;28;20390;-77
2021/04/10 07:31:03;;;;;;;15.68;5.28;;;7.30;99.90;;;8.28;81.69;101039.06;5034323;28;20309;-75
2021/04/10 07:33:33;;;;;;;15.25;4.95;;;7.30;99.90;;;8.29;82.14;101040.78;5031672;28;20198;-75
2021/04/10 07:36:02;;;;;;;14.57;4.75;;;7.30;99.90;;;8.31;81.69;101040.72;5030729;28;20187;-78
2021/04/10 07:38:31;;;;;;;15.82;4.95;;;7.30;99.90;;;8.31;81.59;101051.16;5045538;28;20281;-77
2021/04/10 07:41:02;;;;;;;14.80;4.70;;;7.40;99.90;;;8.37;81.56;101043.22;5031793;28;20214;-74
2021/04/10 07:43:32;;;;;;;15.45;4.38;;;7.40;99.90;;;8.44;81.40;101048.22;5045733;28;20734;-73
2021/04/10 07:46:18;;;;;;;11.27;4.72;;;7.50;99.90;;;8.45;81.26;101051.72;5022072;28;20194;-74
2021/04/10 07:49:07;;;;;;;12.35;4.88;;;7.50;99.90;;;8.52;81.37;101053.28;5048498;28;20188;-77
2021/04/10 07:51:36;;;;;;;16.88;5.38;;;7.50;99.90;;;8.55;81.35;101058.41;5014146;28;20552;-72
2021/04/10 07:54:23;;;;;;;16.95;5.15;;;7.60;99.90;;;8.57;81.22;101057.47;5008734;28;20202;-74
2021/04/10 07:56:55;;;;;;;15.15;4.60;;;7.60;99.90;;;8.58;80.94;101059.22;5012714;28;20252;-75
2021/04/10 07:59:23;;;;;;;19.08;5.30;;;7.60;99.90;;;8.63;80.43;101066.91;5005820;28;20229;-77
2021/04/10 08:01:50;;;;;;;17.23;5.55;;;7.60;99.90;;;8.66;80.39;101062.50;5003939;28;20646;-76
2021/04/10 08:04:17;;;;;;;15.95;5.97;;;7.60;99.90;;;8.74;80.17;101067.53;5020239;28;20545;-76
2021/04/10 08:06:59;;;;;;;14.77;5.30;;;7.70;99.90;;;8.73;80.31;101068.41;5009260;28;20270;-76
2021/04/10 08:09:35;;;;;;;14.27;5.35;;;7.70;99.90;;;8.79;80.24;101073.50;5008014;28;20210;-77
2021/04/10 08:12:07;;;;;;;14.70;5.60;;;7.80;99.90;;;8.91;80.21;101074.94;5013242;28;20194;-76
2021/04/10 08:14:43;;;;;;;14.90;5.75;;;7.90;99.90;;;9.05;79.61;101078.91;5009547;28;20190;-74
2021/04/10 08:17:11;;;;;;;14.18;5.72;;;8.00;99.90;;;9.12;79.65;101080.47;5006548;28;20208;-73
2021/04/10 08:19:39;;;;;;;13.55;5.10;;;8.10;99.90;;;9.16;79.41;101079.47;5010520;28;20218;-75
2021/04/10 08:22:07;;;;;;;13.70;5.78;;;8.20;99.90;;;9.16;79.21;101082.09;5008717;28;20528;-74
2021/04/10 08:24:38;;;;;;;12.90;5.38;;;8.20;99.90;;;9.16;79.46;101084.69;5007394;28;20607;-76
2021/04/10 08:27:07;;;;;;;17.67;5.78;;;8.20;99.90;;;9.14;79.17;101089.13;5000877;28;20277;-75
2021/04/10 08:29:36;;;;;;;13.48;5.28;;;8.10;99.90;;;9.08;78.89;101089.25;5008130;28;20210;-74
2021/04/10 08:32:06;;;;;;;15.27;5.95;;;8.10;99.90;;;9.06;78.63;101096.28;5002921;28;20550;-71
2021/04/10 08:34:33;;;;;;;14.95;5.93;;;8.00;99.90;;;9.08;78.82;101096.22;5022205;28;20199;-73
2021/04/10 08:37:02;;;;;;;13.45;5.13;;;8.00;99.90;;;9.15;78.24;101097.78;5010520;28;20224;-72
2021/04/10 08:39:34;;;;;;;16.02;5.57;;;8.00;99.90;;;9.19;78.61;101099.44;5009679;28;20268;-75
2021/04/10 08:42:03;;;;;;;19.92;7.93;;;8.10;99.90;;;9.29;78.45;101103.53;5023068;28;20229;-74
2021/04/10 08:44:34;;;;;;;20.70;7.45;;;8.20;99.90;;;9.37;78.05;101104.19;5009107;28;20209;-75
2021/04/10 08:47:02;;;;;;;11.85;4.88;;;8.30;99.90;;;9.41;78.04;101111.88;5027284;28;20193;-74
2021/04/10 08:49:35;;;;;;;14.07;6.18;;;8.50;99.90;;;9.42;77.93;101115.38;5022390;28;20232;-74
2021/04/10 08:52:07;;;;;;;14.85;5.47;;;8.50;99.90;;;9.51;77.74;101113.34;5020615;28;20256;-74
2021/04/10 08:54:35;;;;;;;17.52;5.97;;;8.70;99.90;;;9.61;77.41;101117.44;5016069;28;20198;-74
2021/04/10 08:57:10;;;;;;;15.10;5.53;;;8.80;99.90;;;9.72;77.66;101115.41;5002204;28;20302;-74
2021/04/10 08:59:43;;;;;;;16.40;5.55;;;9.00;99.90;;;9.86;77.75;101118.47;5023406;28;20222;-74
2021/04/10 09:02:16;;;;;;;12.63;5.13;;;9.20;99.90;;;9.97;77.89;101121.66;4999930;28;20189;-74
2021/04/10 09:05:00;;;;;;;13.45;5.22;;;9.40;99.90;;;10.01;77.61;101122.44;5020283;28;20210;-74
2021/04/10 09:08:06;;;;;;;11.43;5.43;;;9.50;99.90;;;10.11;77.69;101126.53;5001724;28;20267;-75
2021/04/10 09:10:54;;;;;;;14.38;5.30;;;9.60;99.90;;;10.17;76.86;101122.84;4997088;28;20229;-75
2021/04/10 09:13:26;;;;;;;13.77;5.10;;;9.70;99.90;;;10.04;77.12;101130.19;5013718;28;20224;-73
2021/04/10 09:16:33;;;;;;;14.38;5.90;;;9.60;99.90;;;10.03;76.85;101129.31;5006458;28;20634;-75
2021/04/10 09:19:03;;;;;;;12.82;5.60;;;9.60;99.90;;;10.05;76.48;101135.34;5026172;28;20221;-72
2021/04/10 09:21:48;;;;;;;16.23;5.88;;;9.60;99.90;;;10.07;76.39;101123.09;5014795;28;20657;-75
2021/04/10 09:24:28;;;;;;;23.35;7.20;;;9.60;99.90;;;10.17;76.06;101125.47;5023023;28;20208;-74
2021/04/10 09:27:05;;;;;;;16.60;5.90;;;9.70;99.90;;;10.29;75.25;101119.88;5017175;28;20190;-73
2021/04/10 09:29:48;;;;;;;14.05;5.15;;;9.80;99.90;;;10.37;74.81;101125.72;5002950;28;20217;-74
2021/04/10 09:32:28;;;;;;;19.17;6.47;;;9.90;99.90;;;10.44;74.32;101130.75;5004010;28;20199;-74
2021/04/10 09:34:58;;;;;;;12.98;4.30;;;9.90;99.90;;;10.46;73.93;101133.31;5020091;28;20213;-74
2021/04/10 09:37:54;;;;;;;13.23;5.10;;;9.90;99.90;;;10.44;73.29;101124.66;5014694;28;20832;-75
2021/04/10 09:40:41;;;;;;;14.80;5.90;;;9.80;99.90;;;10.49;72.93;101130.59;5026121;28;20232;-74
2021/04/10 09:43:07;;;;;;;20.23;8.40;;;9.80;99.90;;;10.59;72.47;101134.66;5013196;28;20201;-75
2021/04/10 09:45:36;;;;;;;18.67;6.38;;;10.00;99.90;;;10.61;71.39;101138.94;5000989;28;20276;-73
2021/04/10 09:48:31;;;;;;;13.90;4.75;;;10.10;99.90;;;10.72;71.21;101142.06;5010859;28;20635;-73
2021/04/10 09:51:15;;;;;;;10.07;3.80;;;10.30;99.90;;;10.82;69.65;101142.63;5022490;28;20742;-74
2021/04/10 09:53:53;;;;;;;13.20;4.60;;;10.40;99.90;;;10.92;69.46;101144.91;5012507;28;20190;-72
2021/04/10 09:56:21;;;;;;;13.45;5.65;;;10.60;99.90;;;11.07;69.36;101141.81;5020246;28;20276;-75
2021/04/10 09:58:57;;;;;;;9.32;4.00;;;10.80;99.90;;;11.17;69.10;101139.72;5002924;28;20211;-74
2021/04/10 10:01:29;;;;;;;9.75;3.92;;;10.90;99.90;;;11.20;68.54;101142.28;5009400;28;20194;-74
2021/04/10 10:03:57;;;;;;;11.43;4.68;;;10.90;99.90;;;11.23;68.60;101152.66;5027729;28;20195;-75
2021/04/10 10:06:33;;;;;;;13.98;4.95;;;11.00;99.90;;;11.27;68.12;101149.84;5012244;28;20217;-72
2021/04/10 10:09:00;;;;;;;12.75;4.57;;;11.00;99.90;;;11.28;67.76;101150.72;5020024;28;20213;-73
2021/04/10 10:11:27;;;;;;;30.88;13.15;;;11.00;99.90;;;11.17;67.88;101144.97;5003194;28;20264;-73
2021/04/10 10:13:56;;;;;;;15.90;5.40;;;10.80;99.90;;;11.14;nan;101151.19;5022505;28;20190;-76
2021/04/10 10:16:30;;;;;;;12.48;5.70;;;10.80;99.90;;;11.14;67.24;101151.19;5016458;28;20613;-74
2021/04/10 10:18:57;;;;;;;14.38;5.72;;;10.70;99.90;;;11.19;67.00;101143.16;5024302;28;20208;-73
2021/04/10 10:21:26;;;;;;;11.80;4.35;;;10.70;99.90;;;11.24;66.98;101147.34;5007949;28;20190;-75
2021/04/10 10:23:55;;;;;;;11.82;3.95;;;10.80;99.90;;;11.28;66.33;101148.97;5031342;28;20212;-74
2021/04/10 10:26:26;;;;;;;15.45;6.03;;;11.00;99.90;;;11.27;66.05;101149.00;5001885;28;20682;-75
2021/04/10 10:28:59;;;;;;;12.07;4.78;;;11.00;99.90;;;11.26;65.93;101161.25;5003881;28;20248;-72
2021/04/10 10:31:29;;;;;;;14.75;6.05;;;10.90;99.90;;;11.28;66.45;101167.31;5000046;28;20210;-75
2021/04/10 10:34:05;;;;;;;11.68;4.43;;;10.90;99.90;;;11.22;65.84;101157.00;5017248;28;20245;-73